PWSweather.com
Personal Weather Stations
Station Observations

DeskleSI

Lat: 46.0525, Lon: 13.6103

Elevation: 300

Station Type: Oregon Scientific WMR200

http://vreme-deskle.slohosting.com/

High Low Average
Temperature 58.6°F14.8°C 45.1°F7.3°C 50.8°F10.4°C
Dew Point 48.8°F9.3°C 40.5°F4.7°C 45.0°F7.2°C
Winds 9.2 mph 14.8 kmh Calm Calm 1.0 mph ESE1.6 kmh ESE
Wind Gusts 12.3 mph19.8 kmh -- 3.0 mph4.8 kmh
Humidity 95% 63% 82%
Pressure 29.86 in1011.2 mb 29.65 in1004.1 mb -
Precipitation 0.29 in7.4 mm - -
Hour Temp Dew Point Humidity Winds Wind Gusts Pressure Precip Precip Rate Daily Precip Total
04:30 AM 45.1°F7.3°C 43.5°F6.4°C 94% Calm Calm -- 29.65 in1004.1 mb 0.00 in0.0 mm 0.00 in0.0 mm 0.00 in0.0 mm
04:35 AM 45.1°F7.3°C 43.5°F6.4°C 94% Calm Calm -- 29.65 in1004.1 mb 0.00 in0.0 mm 0.00 in0.0 mm 0.00 in0.0 mm
04:40 AM 45.1°F7.3°C 43.5°F6.4°C 94% Calm Calm -- 29.68 in1005.1 mb 0.00 in0.0 mm 0.00 in0.0 mm 0.00 in0.0 mm
04:45 AM 45.1°F7.3°C 43.5°F6.4°C 94% Calm Calm -- 29.68 in1005.1 mb 0.00 in0.0 mm 0.00 in0.0 mm 0.00 in0.0 mm
04:50 AM 45.1°F7.3°C 43.5°F6.4°C 94% Calm Calm -- 29.68 in1005.1 mb 0.00 in0.0 mm 0.00 in0.0 mm 0.00 in0.0 mm
04:55 AM 45.1°F7.3°C 43.5°F6.4°C 94% Calm Calm -- 29.68 in1005.1 mb 0.00 in0.0 mm 0.00 in0.0 mm 0.00 in0.0 mm
05:00 AM 45.3°F7.4°C 43.7°F6.5°C 94% Calm Calm -- 29.68 in1005.1 mb 0.00 in0.0 mm 0.00 in0.0 mm 0.00 in0.0 mm
05:05 AM 45.3°F7.4°C 43.7°F6.5°C 94% Calm Calm -- 29.68 in1005.1 mb 0.00 in0.0 mm 0.00 in0.0 mm 0.00 in0.0 mm
05:10 AM 45.3°F7.4°C 43.7°F6.5°C 94% Calm Calm -- 29.68 in1005.1 mb 0.00 in0.0 mm 0.00 in0.0 mm 0.00 in0.0 mm
05:15 AM 45.3°F7.4°C 43.7°F6.5°C 94% Calm Calm -- 29.68 in1005.1 mb 0.00 in0.0 mm 0.00 in0.0 mm 0.00 in0.0 mm
05:20 AM 45.3°F7.4°C 43.7°F6.5°C 94% Calm Calm -- 29.68 in1005.1 mb 0.00 in0.0 mm 0.00 in0.0 mm 0.00 in0.0 mm
05:25 AM 45.3°F7.4°C 43.7°F6.5°C 94% Calm Calm -- 29.68 in1005.1 mb 0.00 in0.0 mm 0.00 in0.0 mm 0.00 in0.0 mm
05:30 AM 45.3°F7.4°C 43.7°F6.5°C 94% Calm Calm -- 29.68 in1005.1 mb 0.00 in0.0 mm 0.00 in0.0 mm 0.00 in0.0 mm
05:35 AM 45.5°F7.5°C 43.9°F6.6°C 94% Calm Calm -- 29.68 in1005.1 mb 0.00 in0.0 mm 0.00 in0.0 mm 0.00 in0.0 mm
05:40 AM 45.7°F7.6°C 44.1°F6.7°C 94% Calm Calm -- 29.71 in1006.1 mb 0.00 in0.0 mm 0.00 in0.0 mm 0.00 in0.0 mm
05:45 AM 45.5°F7.5°C 43.9°F6.6°C 94% Calm Calm -- 29.71 in1006.1 mb 0.00 in0.0 mm 0.00 in0.0 mm 0.00 in0.0 mm
05:50 AM 45.5°F7.5°C 43.9°F6.6°C 94% Calm Calm -- 29.71 in1006.1 mb 0.00 in0.0 mm 0.00 in0.0 mm 0.00 in0.0 mm
05:55 AM 45.5°F7.5°C 43.9°F6.6°C 94% Calm Calm -- 29.71 in1006.1 mb 0.00 in0.0 mm 0.00 in0.0 mm 0.00 in0.0 mm
06:00 AM 45.5°F7.5°C 43.9°F6.6°C 94% Calm Calm -- 29.71 in1006.1 mb 0.00 in0.0 mm 0.00 in0.0 mm 0.00 in0.0 mm
06:05 AM 45.5°F7.5°C 43.9°F6.6°C 94% Calm Calm -- 29.71 in1006.1 mb 0.00 in0.0 mm 0.00 in0.0 mm 0.00 in0.0 mm
06:10 AM 45.5°F7.5°C 43.9°F6.6°C 94% Calm Calm -- 29.71 in1006.1 mb 0.00 in0.0 mm 0.00 in0.0 mm 0.00 in0.0 mm
06:15 AM 45.5°F7.5°C 43.9°F6.6°C 94% Calm Calm -- 29.71 in1006.1 mb 0.00 in0.0 mm 0.00 in0.0 mm 0.00 in0.0 mm
06:20 AM 45.5°F7.5°C 43.9°F6.6°C 94% Calm Calm -- 29.71 in1006.1 mb 0.00 in0.0 mm 0.00 in0.0 mm 0.00 in0.0 mm
06:25 AM 45.5°F7.5°C 43.9°F6.6°C 94% Calm Calm -- 29.71 in1006.1 mb 0.00 in0.0 mm 0.00 in0.0 mm 0.00 in0.0 mm
06:30 AM 45.5°F7.5°C 43.9°F6.6°C 94% Calm Calm -- 29.71 in1006.1 mb 0.00 in0.0 mm 0.00 in0.0 mm 0.00 in0.0 mm
06:35 AM 45.5°F7.5°C 43.9°F6.6°C 94% Calm Calm -- 29.71 in1006.1 mb 0.00 in0.0 mm 0.00 in0.0 mm 0.00 in0.0 mm
06:40 AM 45.3°F7.4°C 43.7°F6.5°C 94% Calm Calm -- 29.71 in1006.1 mb 0.00 in0.0 mm 0.00 in0.0 mm 0.00 in0.0 mm
06:45 AM 45.3°F7.4°C 43.7°F6.5°C 94% Calm Calm -- 29.71 in1006.1 mb 0.00 in0.0 mm 0.00 in0.0 mm 0.00 in0.0 mm
06:50 AM 45.3°F7.4°C 43.7°F6.5°C 94% Calm Calm -- 29.71 in1006.1 mb 0.00 in0.0 mm 0.00 in0.0 mm 0.00 in0.0 mm
06:55 AM 45.3°F7.4°C 43.7°F6.5°C 94% Calm Calm -- 29.71 in1006.1 mb 0.00 in0.0 mm 0.00 in0.0 mm 0.00 in0.0 mm
07:00 AM 45.5°F7.5°C 43.9°F6.6°C 94% Calm Calm -- 29.71 in1006.1 mb 0.00 in0.0 mm 0.00 in0.0 mm 0.00 in0.0 mm
07:05 AM 45.5°F7.5°C 43.9°F6.6°C 94% Calm Calm -- 29.71 in1006.1 mb 0.00 in0.0 mm 0.00 in0.0 mm 0.00 in0.0 mm
07:10 AM 45.7°F7.6°C 44.3°F6.8°C 95% Calm Calm -- 29.71 in1006.1 mb 0.00 in0.0 mm 0.00 in0.0 mm 0.00 in0.0 mm
07:15 AM 45.7°F7.6°C 44.3°F6.8°C 95% Calm Calm -- 29.71 in1006.1 mb 0.00 in0.0 mm 0.00 in0.0 mm 0.00 in0.0 mm
07:20 AM 45.9°F7.7°C 44.5°F6.9°C 95% Calm Calm -- 29.71 in1006.1 mb 0.00 in0.0 mm 0.00 in0.0 mm 0.00 in0.0 mm
07:25 AM 45.9°F7.7°C 44.5°F6.9°C 95% Calm Calm 1.1 mph1.8 kmh 29.71 in1006.1 mb 0.00 in0.0 mm 0.00 in0.0 mm 0.00 in0.0 mm
07:30 AM 45.9°F7.7°C 44.5°F6.9°C 95% Calm Calm 1.1 mph1.8 kmh 29.71 in1006.1 mb 0.00 in0.0 mm 0.00 in0.0 mm 0.00 in0.0 mm
07:35 AM 46.0°F7.8°C 44.7°F7.1°C 95% Calm Calm 2.0 mph3.2 kmh 29.71 in1006.1 mb 0.00 in0.0 mm 0.00 in0.0 mm 0.00 in0.0 mm
07:40 AM 46.0°F7.8°C 44.7°F7.1°C 95% Calm Calm 2.0 mph3.2 kmh 29.71 in1006.1 mb 0.00 in0.0 mm 0.00 in0.0 mm 0.00 in0.0 mm
07:45 AM 46.2°F7.9°C 44.9°F7.2°C 95% Calm Calm 1.3 mph2.1 kmh 29.71 in1006.1 mb 0.00 in0.0 mm 0.00 in0.0 mm 0.00 in0.0 mm
07:50 AM 46.2°F7.9°C 44.9°F7.2°C 95% Calm Calm 2.0 mph3.2 kmh 29.71 in1006.1 mb 0.00 in0.0 mm 0.00 in0.0 mm 0.00 in0.0 mm
07:55 AM 46.4°F8.0°C 45.0°F7.2°C 95% Calm Calm 2.0 mph3.2 kmh 29.71 in1006.1 mb 0.00 in0.0 mm 0.00 in0.0 mm 0.00 in0.0 mm
08:00 AM 46.4°F8.0°C 45.0°F7.2°C 95% Calm Calm -- 29.71 in1006.1 mb 0.00 in0.0 mm 0.00 in0.0 mm 0.00 in0.0 mm
08:05 AM 46.2°F7.9°C 44.9°F7.2°C 95% Calm Calm 0.9 mph1.4 kmh 29.71 in1006.1 mb 0.00 in0.0 mm 0.00 in0.0 mm 0.00 in0.0 mm
08:10 AM 46.4°F8.0°C 45.0°F7.2°C 95% Calm Calm 1.3 mph2.1 kmh 29.71 in1006.1 mb 0.00 in0.0 mm 0.00 in0.0 mm 0.00 in0.0 mm
08:15 AM 46.4°F8.0°C 45.0°F7.2°C 95% Calm Calm 1.3 mph2.1 kmh 29.71 in1006.1 mb 0.00 in0.0 mm 0.00 in0.0 mm 0.00 in0.0 mm
08:20 AM 46.6°F8.1°C 45.2°F7.3°C 95% Calm Calm 0.9 mph1.4 kmh 29.71 in1006.1 mb 0.00 in0.0 mm 0.00 in0.0 mm 0.00 in0.0 mm
08:25 AM 46.6°F8.1°C 44.9°F7.2°C 94% Calm Calm -- 29.71 in1006.1 mb 0.00 in0.0 mm 0.00 in0.0 mm 0.00 in0.0 mm
08:30 AM 46.8°F8.2°C 45.1°F7.3°C 94% Calm Calm -- 29.71 in1006.1 mb 0.00 in0.0 mm 0.00 in0.0 mm 0.00 in0.0 mm
08:35 AM 46.8°F8.2°C 45.1°F7.3°C 94% Calm Calm -- 29.71 in1006.1 mb 0.00 in0.0 mm 0.00 in0.0 mm 0.00 in0.0 mm
08:40 AM 46.9°F8.3°C 45.3°F7.4°C 94% Calm Calm -- 29.74 in1007.1 mb 0.00 in0.0 mm 0.00 in0.0 mm 0.00 in0.0 mm
08:45 AM 47.1°F8.4°C 45.5°F7.5°C 94% Calm Calm -- 29.74 in1007.1 mb 0.00 in0.0 mm 0.00 in0.0 mm 0.00 in0.0 mm
08:50 AM 47.1°F8.4°C 45.5°F7.5°C 94% Calm Calm -- 29.74 in1007.1 mb 0.00 in0.0 mm 0.00 in0.0 mm 0.00 in0.0 mm
08:55 AM 47.3°F8.5°C 45.7°F7.6°C 94% Calm Calm -- 29.74 in1007.1 mb 0.00 in0.0 mm 0.00 in0.0 mm 0.00 in0.0 mm
09:00 AM 47.3°F8.5°C 45.7°F7.6°C 94% Calm Calm 0.9 mph1.4 kmh 29.74 in1007.1 mb 0.00 in0.0 mm 0.00 in0.0 mm 0.00 in0.0 mm
09:05 AM 47.3°F8.5°C 45.7°F7.6°C 94% Calm Calm 0.9 mph1.4 kmh 29.74 in1007.1 mb 0.00 in0.0 mm 0.00 in0.0 mm 0.00 in0.0 mm
09:10 AM 47.5°F8.6°C 45.8°F7.7°C 94% Calm Calm -- 29.74 in1007.1 mb 0.00 in0.0 mm 0.00 in0.0 mm 0.00 in0.0 mm
09:15 AM 47.7°F8.7°C 46.0°F7.8°C 94% Calm Calm -- 29.74 in1007.1 mb 0.00 in0.0 mm 0.00 in0.0 mm 0.00 in0.0 mm
09:20 AM 47.7°F8.7°C 46.0°F7.8°C 94% Calm Calm -- 29.74 in1007.1 mb 0.00 in0.0 mm 0.00 in0.0 mm 0.00 in0.0 mm
09:25 AM 47.8°F8.8°C 45.9°F7.7°C 93% Calm Calm -- 29.74 in1007.1 mb 0.00 in0.0 mm 0.00 in0.0 mm 0.00 in0.0 mm
09:30 AM 48.0°F8.9°C 46.1°F7.8°C 93% Calm Calm -- 29.74 in1007.1 mb 0.00 in0.0 mm 0.00 in0.0 mm 0.00 in0.0 mm
09:35 AM 48.2°F9.0°C 46.3°F7.9°C 93% Calm Calm -- 29.74 in1007.1 mb 0.00 in0.0 mm 0.00 in0.0 mm 0.00 in0.0 mm
09:40 AM 48.4°F9.1°C 46.2°F7.9°C 92% Calm Calm -- 29.74 in1007.1 mb 0.00 in0.0 mm 0.00 in0.0 mm 0.00 in0.0 mm
09:45 AM 48.6°F9.2°C 46.3°F7.9°C 92% 0.9 mph WNW1.4 kmh WNW 1.3 mph2.1 kmh 29.74 in1007.1 mb 0.00 in0.0 mm 0.00 in0.0 mm 0.00 in0.0 mm
09:50 AM 48.7°F9.3°C 46.5°F8.1°C 92% Calm Calm 1.3 mph2.1 kmh 29.74 in1007.1 mb 0.00 in0.0 mm 0.00 in0.0 mm 0.00 in0.0 mm
09:55 AM 48.7°F9.3°C 46.2°F7.9°C 91% Calm Calm 1.6 mph2.6 kmh 29.74 in1007.1 mb 0.00 in0.0 mm 0.00 in0.0 mm 0.00 in0.0 mm
10:00 AM 48.9°F9.4°C 46.4°F8.0°C 91% Calm Calm 1.6 mph2.6 kmh 29.74 in1007.1 mb 0.00 in0.0 mm 0.00 in0.0 mm 0.00 in0.0 mm
10:05 AM 48.9°F9.4°C 46.4°F8.0°C 91% Calm Calm 1.3 mph2.1 kmh 29.74 in1007.1 mb 0.00 in0.0 mm 0.00 in0.0 mm 0.00 in0.0 mm
10:10 AM 49.1°F9.5°C 46.6°F8.1°C 91% Calm Calm -- 29.74 in1007.1 mb 0.00 in0.0 mm 0.00 in0.0 mm 0.00 in0.0 mm
10:15 AM 49.3°F9.6°C 46.8°F8.2°C 91% Calm Calm -- 29.74 in1007.1 mb 0.00 in0.0 mm 0.00 in0.0 mm 0.00 in0.0 mm
10:20 AM 49.5°F9.7°C 46.6°F8.1°C 90% Calm Calm 1.1 mph1.8 kmh 29.74 in1007.1 mb 0.00 in0.0 mm 0.00 in0.0 mm 0.00 in0.0 mm
10:25 AM 49.5°F9.7°C 46.6°F8.1°C 90% Calm Calm 1.1 mph1.8 kmh 29.74 in1007.1 mb 0.00 in0.0 mm 0.00 in0.0 mm 0.00 in0.0 mm
10:30 AM 49.5°F9.7°C 46.6°F8.1°C 90% Calm Calm -- 29.74 in1007.1 mb 0.00 in0.0 mm 0.00 in0.0 mm 0.00 in0.0 mm
10:35 AM 49.5°F9.7°C 46.4°F8.0°C 89% Calm Calm -- 29.74 in1007.1 mb 0.00 in0.0 mm 0.00 in0.0 mm 0.00 in0.0 mm
10:40 AM 49.5°F9.7°C 46.4°F8.0°C 89% Calm Calm -- 29.74 in1007.1 mb 0.00 in0.0 mm 0.00 in0.0 mm 0.00 in0.0 mm
10:45 AM 49.5°F9.7°C 46.4°F8.0°C 89% Calm Calm -- 29.74 in1007.1 mb 0.00 in0.0 mm 0.00 in0.0 mm 0.00 in0.0 mm
10:50 AM 49.5°F9.7°C 46.4°F8.0°C 89% Calm Calm -- 29.74 in1007.1 mb 0.00 in0.0 mm 0.00 in0.0 mm 0.00 in0.0 mm
10:55 AM 49.5°F9.7°C 46.4°F8.0°C 89% Calm Calm -- 29.74 in1007.1 mb 0.00 in0.0 mm 0.00 in0.0 mm 0.00 in0.0 mm
11:00 AM 49.6°F9.8°C 46.5°F8.1°C 89% Calm Calm 1.1 mph1.8 kmh 29.74 in1007.1 mb 0.00 in0.0 mm 0.00 in0.0 mm 0.00 in0.0 mm
11:05 AM 49.6°F9.8°C 46.5°F8.1°C 89% Calm Calm 1.1 mph1.8 kmh 29.74 in1007.1 mb 0.00 in0.0 mm 0.00 in0.0 mm 0.00 in0.0 mm
11:10 AM 49.6°F9.8°C 46.2°F7.9°C 88% Calm Calm -- 29.74 in1007.1 mb 0.00 in0.0 mm 0.00 in0.0 mm 0.00 in0.0 mm
11:15 AM 49.6°F9.8°C 46.2°F7.9°C 88% Calm Calm 1.1 mph1.8 kmh 29.74 in1007.1 mb 0.04 in1.0 mm 0.48 in12.2 mm 0.04 in1.0 mm
11:20 AM 49.6°F9.8°C 46.2°F7.9°C 88% Calm Calm 1.1 mph1.8 kmh 29.74 in1007.1 mb 0.04 in1.0 mm 0.00 in0.0 mm 0.04 in1.0 mm
11:25 AM 49.8°F9.9°C 46.7°F8.2°C 89% Calm Calm -- 29.74 in1007.1 mb 0.04 in1.0 mm 0.00 in0.0 mm 0.04 in1.0 mm
11:30 AM 49.8°F9.9°C 46.7°F8.2°C 89% Calm Calm -- 29.74 in1007.1 mb 0.04 in1.0 mm 0.00 in0.0 mm 0.04 in1.0 mm
11:35 AM 50.0°F10.0°C 46.9°F8.3°C 89% Calm Calm -- 29.74 in1007.1 mb 0.04 in1.0 mm 0.00 in0.0 mm 0.04 in1.0 mm
11:40 AM 50.0°F10.0°C 46.6°F8.1°C 88% Calm Calm -- 29.74 in1007.1 mb 0.04 in1.0 mm 0.00 in0.0 mm 0.04 in1.0 mm
11:45 AM 50.2°F10.1°C 46.8°F8.2°C 88% Calm Calm -- 29.74 in1007.1 mb 0.04 in1.0 mm 0.00 in0.0 mm 0.04 in1.0 mm
11:50 AM 50.4°F10.2°C 46.9°F8.3°C 88% Calm Calm 0.9 mph1.4 kmh 29.74 in1007.1 mb 0.04 in1.0 mm 0.00 in0.0 mm 0.04 in1.0 mm
11:55 AM 50.7°F10.4°C 47.3°F8.5°C 88% Calm Calm 3.1 mph5.0 kmh 29.74 in1007.1 mb 0.04 in1.0 mm 0.00 in0.0 mm 0.04 in1.0 mm
12:00 PM 51.3°F10.7°C 48.4°F9.1°C 90% 2.0 mph E3.2 kmh E 3.1 mph5.0 kmh 29.74 in1007.1 mb 0.04 in1.0 mm 0.00 in0.0 mm 0.04 in1.0 mm
12:05 PM 51.4°F10.8°C 48.3°F9.1°C 89% Calm Calm 3.1 mph5.0 kmh 29.74 in1007.1 mb 0.04 in1.0 mm 0.00 in0.0 mm 0.04 in1.0 mm
12:10 PM 52.2°F11.2°C 48.7°F9.3°C 88% Calm Calm 2.5 mph4.0 kmh 29.74 in1007.1 mb 0.04 in1.0 mm 0.00 in0.0 mm 0.04 in1.0 mm
12:15 PM 52.5°F11.4°C 48.1°F8.9°C 85% Calm Calm 2.5 mph4.0 kmh 29.74 in1007.1 mb 0.00 in0.0 mm 0.00 in0.0 mm 0.04 in1.0 mm
12:20 PM 52.9°F11.6°C 48.5°F9.2°C 85% Calm Calm 2.7 mph4.3 kmh 29.74 in1007.1 mb 0.00 in0.0 mm 0.00 in0.0 mm 0.04 in1.0 mm
12:25 PM 53.2°F11.8°C 48.8°F9.3°C 85% Calm Calm 2.7 mph4.3 kmh 29.74 in1007.1 mb 0.00 in0.0 mm 0.00 in0.0 mm 0.04 in1.0 mm
12:30 PM 53.6°F12.0°C 48.6°F9.2°C 83% 2.0 mph E3.2 kmh E 2.5 mph4.0 kmh 29.74 in1007.1 mb 0.00 in0.0 mm 0.00 in0.0 mm 0.04 in1.0 mm
12:35 PM 54.0°F12.2°C 48.6°F9.2°C 82% 2.5 mph E4.0 kmh E 4.0 mph6.4 kmh 29.74 in1007.1 mb 0.00 in0.0 mm 0.00 in0.0 mm 0.04 in1.0 mm
12:40 PM 54.3°F12.4°C 48.3°F9.1°C 80% 1.1 mph ENE1.8 kmh ENE 4.0 mph6.4 kmh 29.74 in1007.1 mb 0.00 in0.0 mm 0.00 in0.0 mm 0.04 in1.0 mm
12:45 PM 55.0°F12.8°C 47.3°F8.5°C 75% 2.7 mph E4.3 kmh E 3.8 mph6.1 kmh 29.74 in1007.1 mb 0.00 in0.0 mm 0.00 in0.0 mm 0.04 in1.0 mm
12:50 PM 55.2°F12.9°C 48.5°F9.2°C 78% 1.3 mph ENE2.1 kmh ENE 3.8 mph6.1 kmh 29.74 in1007.1 mb 0.00 in0.0 mm 0.00 in0.0 mm 0.04 in1.0 mm
12:55 PM 55.6°F13.1°C 47.4°F8.6°C 74% Calm Calm 2.7 mph4.3 kmh 29.74 in1007.1 mb 0.00 in0.0 mm 0.00 in0.0 mm 0.04 in1.0 mm
01:00 PM 56.1°F13.4°C 48.3°F9.1°C 75% 2.2 mph ESE3.5 kmh ESE 4.3 mph6.9 kmh 29.74 in1007.1 mb 0.00 in0.0 mm 0.00 in0.0 mm 0.04 in1.0 mm
01:05 PM 56.7°F13.7°C 47.7°F8.7°C 72% 2.5 mph SE4.0 kmh SE 4.3 mph6.9 kmh 29.74 in1007.1 mb 0.00 in0.0 mm 0.00 in0.0 mm 0.04 in1.0 mm
01:10 PM 56.8°F13.8°C 46.8°F8.2°C 69% Calm Calm 3.4 mph5.5 kmh 29.74 in1007.1 mb 0.00 in0.0 mm 0.00 in0.0 mm 0.04 in1.0 mm
01:15 PM 56.8°F13.8°C 47.5°F8.6°C 71% Calm Calm 3.1 mph5.0 kmh 29.74 in1007.1 mb 0.00 in0.0 mm 0.00 in0.0 mm 0.04 in1.0 mm
01:20 PM 57.2°F14.0°C 46.7°F8.2°C 68% 0.9 mph NE1.4 kmh NE 3.4 mph5.5 kmh 29.74 in1007.1 mb 0.00 in0.0 mm 0.00 in0.0 mm 0.04 in1.0 mm
01:25 PM 57.2°F14.0°C 48.6°F9.2°C 73% 1.1 mph E1.8 kmh E 3.4 mph5.5 kmh 29.74 in1007.1 mb 0.00 in0.0 mm 0.00 in0.0 mm 0.04 in1.0 mm
01:30 PM 57.2°F14.0°C 45.5°F7.5°C 65% 2.0 mph SE3.2 kmh SE 3.6 mph5.8 kmh 29.74 in1007.1 mb 0.00 in0.0 mm 0.00 in0.0 mm 0.04 in1.0 mm
01:35 PM 57.2°F14.0°C 46.7°F8.2°C 68% Calm Calm 3.6 mph5.8 kmh 29.74 in1007.1 mb 0.00 in0.0 mm 0.00 in0.0 mm 0.04 in1.0 mm
01:40 PM 57.4°F14.1°C 46.5°F8.1°C 67% 1.6 mph E2.6 kmh E 2.2 mph3.5 kmh 29.71 in1006.1 mb 0.00 in0.0 mm 0.00 in0.0 mm 0.04 in1.0 mm
01:45 PM 57.4°F14.1°C 46.5°F8.1°C 67% Calm Calm 2.2 mph3.5 kmh 29.71 in1006.1 mb 0.00 in0.0 mm 0.00 in0.0 mm 0.04 in1.0 mm
01:50 PM 57.4°F14.1°C 46.1°F7.8°C 66% Calm Calm 1.3 mph2.1 kmh 29.71 in1006.1 mb 0.00 in0.0 mm 0.00 in0.0 mm 0.04 in1.0 mm
01:55 PM 57.4°F14.1°C 46.5°F8.1°C 67% Calm Calm 1.1 mph1.8 kmh 29.71 in1006.1 mb 0.00 in0.0 mm 0.00 in0.0 mm 0.04 in1.0 mm
02:00 PM 57.2°F14.0°C 46.3°F7.9°C 67% Calm Calm -- 29.71 in1006.1 mb 0.00 in0.0 mm 0.00 in0.0 mm 0.04 in1.0 mm
02:05 PM 57.2°F14.0°C 46.7°F8.2°C 68% 2.5 mph WNW4.0 kmh WNW 2.7 mph4.3 kmh 29.71 in1006.1 mb 0.00 in0.0 mm 0.00 in0.0 mm 0.04 in1.0 mm
02:10 PM 57.2°F14.0°C 46.7°F8.2°C 68% Calm Calm 2.7 mph4.3 kmh 29.71 in1006.1 mb 0.00 in0.0 mm 0.00 in0.0 mm 0.04 in1.0 mm
02:15 PM 57.2°F14.0°C 46.7°F8.2°C 68% Calm Calm 3.1 mph5.0 kmh 29.71 in1006.1 mb 0.00 in0.0 mm 0.00 in0.0 mm 0.04 in1.0 mm
02:20 PM 57.4°F14.1°C 46.9°F8.3°C 68% 0.9 mph WNW1.4 kmh WNW 3.8 mph6.1 kmh 29.71 in1006.1 mb 0.00 in0.0 mm 0.00 in0.0 mm 0.04 in1.0 mm
02:25 PM 57.9°F14.4°C 45.4°F7.4°C 63% Calm Calm 3.8 mph6.1 kmh 29.71 in1006.1 mb 0.00 in0.0 mm 0.00 in0.0 mm 0.04 in1.0 mm
02:30 PM 58.3°F14.6°C 46.6°F8.1°C 65% Calm Calm 3.6 mph5.8 kmh 29.71 in1006.1 mb 0.00 in0.0 mm 0.00 in0.0 mm 0.04 in1.0 mm
02:35 PM 58.6°F14.8°C 46.9°F8.3°C 65% Calm Calm 3.6 mph5.8 kmh 29.71 in1006.1 mb 0.00 in0.0 mm 0.00 in0.0 mm 0.04 in1.0 mm
02:40 PM 58.6°F14.8°C 47.7°F8.7°C 67% 0.9 mph S1.4 kmh S 3.6 mph5.8 kmh 29.71 in1006.1 mb 0.00 in0.0 mm 0.00 in0.0 mm 0.04 in1.0 mm
02:45 PM 58.6°F14.8°C 47.7°F8.7°C 67% 0.9 mph NW1.4 kmh NW 3.1 mph5.0 kmh 29.71 in1006.1 mb 0.00 in0.0 mm 0.00 in0.0 mm 0.04 in1.0 mm
02:50 PM 58.6°F14.8°C 47.7°F8.7°C 67% 6.0 mph W9.7 kmh W 7.6 mph12.2 kmh 29.71 in1006.1 mb 0.00 in0.0 mm 0.00 in0.0 mm 0.04 in1.0 mm
02:55 PM 58.5°F14.7°C 47.1°F8.4°C 66% 4.9 mph W7.9 kmh W 7.6 mph12.2 kmh 29.71 in1006.1 mb 0.00 in0.0 mm 0.00 in0.0 mm 0.04 in1.0 mm
03:00 PM 58.5°F14.7°C 47.5°F8.6°C 67% 4.3 mph W6.9 kmh W 7.6 mph12.2 kmh 29.71 in1006.1 mb 0.00 in0.0 mm 0.00 in0.0 mm 0.04 in1.0 mm
03:05 PM 58.5°F14.7°C 47.5°F8.6°C 67% 4.9 mph W7.9 kmh W 9.4 mph15.1 kmh 29.71 in1006.1 mb 0.00 in0.0 mm 0.00 in0.0 mm 0.04 in1.0 mm
03:10 PM 58.5°F14.7°C 46.7°F8.2°C 65% 4.3 mph W6.9 kmh W 9.4 mph15.1 kmh 29.71 in1006.1 mb 0.00 in0.0 mm 0.00 in0.0 mm 0.04 in1.0 mm
03:15 PM 58.6°F14.8°C 47.3°F8.5°C 66% 5.8 mph W9.3 kmh W 8.1 mph13.0 kmh 29.71 in1006.1 mb 0.00 in0.0 mm 0.00 in0.0 mm 0.04 in1.0 mm
03:20 PM 58.5°F14.7°C 47.1°F8.4°C 66% 4.3 mph W6.9 kmh W 8.1 mph13.0 kmh 29.71 in1006.1 mb 0.00 in0.0 mm 0.00 in0.0 mm 0.04 in1.0 mm
03:25 PM 58.3°F14.6°C 47.0°F8.3°C 66% 3.1 mph W5.0 kmh W 7.6 mph12.2 kmh 29.71 in1006.1 mb 0.00 in0.0 mm 0.00 in0.0 mm 0.04 in1.0 mm
03:30 PM 58.3°F14.6°C 46.6°F8.1°C 65% 3.8 mph W6.1 kmh W 8.1 mph13.0 kmh 29.71 in1006.1 mb 0.00 in0.0 mm 0.00 in0.0 mm 0.04 in1.0 mm
03:35 PM 58.1°F14.5°C 46.0°F7.8°C 64% 3.6 mph W5.8 kmh W 8.1 mph13.0 kmh 29.71 in1006.1 mb 0.00 in0.0 mm 0.00 in0.0 mm 0.04 in1.0 mm
03:40 PM 57.9°F14.4°C 46.2°F7.9°C 65% 3.4 mph W5.5 kmh W 7.6 mph12.2 kmh 29.71 in1006.1 mb 0.00 in0.0 mm 0.00 in0.0 mm 0.04 in1.0 mm
03:45 PM 57.7°F14.3°C 46.0°F7.8°C 65% 6.5 mph WNW10.5 kmh WNW 9.4 mph15.1 kmh 29.71 in1006.1 mb 0.00 in0.0 mm 0.00 in0.0 mm 0.04 in1.0 mm
03:50 PM 57.6°F14.2°C 45.9°F7.7°C 65% 3.8 mph WNW6.1 kmh WNW 9.4 mph15.1 kmh 29.71 in1006.1 mb 0.00 in0.0 mm 0.00 in0.0 mm 0.04 in1.0 mm
03:55 PM 57.6°F14.2°C 45.9°F7.7°C 65% 3.1 mph WNW5.0 kmh WNW 8.5 mph13.7 kmh 29.74 in1007.1 mb 0.00 in0.0 mm 0.00 in0.0 mm 0.04 in1.0 mm
04:00 PM 57.6°F14.2°C 45.9°F7.7°C 65% 4.5 mph W7.2 kmh W 7.8 mph12.6 kmh 29.74 in1007.1 mb 0.00 in0.0 mm 0.00 in0.0 mm 0.04 in1.0 mm
04:05 PM 57.6°F14.2°C 45.5°F7.5°C 64% 1.6 mph W2.6 kmh W 8.7 mph14.0 kmh 29.74 in1007.1 mb 0.00 in0.0 mm 0.00 in0.0 mm 0.04 in1.0 mm
04:10 PM 57.6°F14.2°C 45.5°F7.5°C 64% 4.5 mph W7.2 kmh W 8.7 mph14.0 kmh 29.71 in1006.1 mb 0.00 in0.0 mm 0.00 in0.0 mm 0.04 in1.0 mm
04:15 PM 57.6°F14.2°C 45.5°F7.5°C 64% 3.8 mph W6.1 kmh W 9.6 mph15.4 kmh 29.71 in1006.1 mb 0.00 in0.0 mm 0.00 in0.0 mm 0.04 in1.0 mm
04:20 PM 57.4°F14.1°C 44.9°F7.2°C 63% 3.8 mph W6.1 kmh W 9.6 mph15.4 kmh 29.71 in1006.1 mb 0.00 in0.0 mm 0.00 in0.0 mm 0.04 in1.0 mm
04:25 PM 57.2°F14.0°C 45.1°F7.3°C 64% 5.8 mph W9.3 kmh W 7.8 mph12.6 kmh 29.71 in1006.1 mb 0.00 in0.0 mm 0.00 in0.0 mm 0.04 in1.0 mm
04:30 PM 57.2°F14.0°C 45.1°F7.3°C 64% 3.8 mph W6.1 kmh W 8.7 mph14.0 kmh 29.71 in1006.1 mb 0.00 in0.0 mm 0.00 in0.0 mm 0.04 in1.0 mm
04:35 PM 57.0°F13.9°C 45.4°F7.4°C 65% 3.1 mph WNW5.0 kmh WNW 8.7 mph14.0 kmh 29.71 in1006.1 mb 0.00 in0.0 mm 0.00 in0.0 mm 0.04 in1.0 mm
04:40 PM 56.8°F13.8°C 45.2°F7.3°C 65% 2.5 mph W4.0 kmh W 9.4 mph15.1 kmh 29.71 in1006.1 mb 0.00 in0.0 mm 0.00 in0.0 mm 0.04 in1.0 mm
04:45 PM 56.8°F13.8°C 45.6°F7.6°C 66% 2.0 mph W3.2 kmh W 10.1 mph16.3 kmh 29.71 in1006.1 mb 0.00 in0.0 mm 0.00 in0.0 mm 0.04 in1.0 mm
04:50 PM 56.5°F13.6°C 44.9°F7.2°C 65% 4.9 mph SW7.9 kmh SW 10.7 mph17.2 kmh 29.71 in1006.1 mb 0.00 in0.0 mm 0.00 in0.0 mm 0.04 in1.0 mm
04:55 PM 56.1°F13.4°C 44.5°F6.9°C 65% 2.9 mph SSW4.7 kmh SSW 10.7 mph17.2 kmh 29.74 in1007.1 mb 0.00 in0.0 mm 0.00 in0.0 mm 0.04 in1.0 mm
05:00 PM 55.8°F13.2°C 44.2°F6.8°C 65% 1.3 mph SSW2.1 kmh SSW 10.7 mph17.2 kmh 29.74 in1007.1 mb 0.00 in0.0 mm 0.00 in0.0 mm 0.04 in1.0 mm
05:05 PM 55.8°F13.2°C 44.6°F7.0°C 66% 2.2 mph SW3.5 kmh SW 9.8 mph15.8 kmh 29.74 in1007.1 mb 0.00 in0.0 mm 0.00 in0.0 mm 0.04 in1.0 mm
05:10 PM 55.6°F13.1°C 44.4°F6.9°C 66% 2.5 mph SW4.0 kmh SW 4.9 mph7.9 kmh 29.74 in1007.1 mb 0.00 in0.0 mm 0.00 in0.0 mm 0.04 in1.0 mm
05:15 PM 55.4°F13.0°C 44.2°F6.8°C 66% 6.3 mph WSW10.1 kmh WSW 8.7 mph14.0 kmh 29.74 in1007.1 mb 0.00 in0.0 mm 0.00 in0.0 mm 0.04 in1.0 mm
05:20 PM 55.4°F13.0°C 44.6°F7.0°C 67% 2.2 mph W3.5 kmh W 8.7 mph14.0 kmh 29.74 in1007.1 mb 0.00 in0.0 mm 0.00 in0.0 mm 0.04 in1.0 mm
05:25 PM 55.0°F12.8°C 43.9°F6.6°C 66% 1.3 mph WNW2.1 kmh WNW 6.0 mph9.7 kmh 29.74 in1007.1 mb 0.00 in0.0 mm 0.00 in0.0 mm 0.04 in1.0 mm
05:30 PM 55.0°F12.8°C 43.9°F6.6°C 66% Calm Calm 3.6 mph5.8 kmh 29.74 in1007.1 mb 0.00 in0.0 mm 0.00 in0.0 mm 0.04 in1.0 mm
05:35 PM 54.9°F12.7°C 44.1°F6.7°C 67% 2.9 mph W4.7 kmh W 4.3 mph6.9 kmh 29.74 in1007.1 mb 0.00 in0.0 mm 0.00 in0.0 mm 0.04 in1.0 mm
05:40 PM 54.9°F12.7°C 44.1°F6.7°C 67% 2.7 mph WSW4.3 kmh WSW 5.8 mph9.3 kmh 29.74 in1007.1 mb 0.00 in0.0 mm 0.00 in0.0 mm 0.04 in1.0 mm
05:45 PM 54.5°F12.5°C 43.8°F6.6°C 67% 2.5 mph WSW4.0 kmh WSW 10.1 mph16.3 kmh 29.74 in1007.1 mb 0.00 in0.0 mm 0.00 in0.0 mm 0.04 in1.0 mm
05:50 PM 54.3°F12.4°C 44.0°F6.7°C 68% 1.3 mph W2.1 kmh W 10.1 mph16.3 kmh 29.74 in1007.1 mb 0.00 in0.0 mm 0.00 in0.0 mm 0.04 in1.0 mm
05:55 PM 54.1°F12.3°C 44.2°F6.8°C 69% 4.3 mph WNW6.9 kmh WNW 7.4 mph11.9 kmh 29.74 in1007.1 mb 0.00 in0.0 mm 0.00 in0.0 mm 0.04 in1.0 mm
06:00 PM 54.0°F12.2°C 44.0°F6.7°C 69% 1.3 mph NW2.1 kmh NW 7.4 mph11.9 kmh 29.74 in1007.1 mb 0.00 in0.0 mm 0.00 in0.0 mm 0.04 in1.0 mm
06:05 PM 53.8°F12.1°C 44.2°F6.8°C 70% 1.3 mph WNW2.1 kmh WNW 8.5 mph13.7 kmh 29.74 in1007.1 mb 0.00 in0.0 mm 0.00 in0.0 mm 0.04 in1.0 mm
06:10 PM 53.6°F12.0°C 44.0°F6.7°C 70% 3.1 mph WNW5.0 kmh WNW 8.5 mph13.7 kmh 29.77 in1008.1 mb 0.00 in0.0 mm 0.00 in0.0 mm 0.04 in1.0 mm
06:15 PM 53.6°F12.0°C 44.0°F6.7°C 70% Calm Calm 5.6 mph9.0 kmh 29.77 in1008.1 mb 0.00 in0.0 mm 0.00 in0.0 mm 0.04 in1.0 mm
06:20 PM 53.4°F11.9°C 44.2°F6.8°C 71% Calm Calm 3.4 mph5.5 kmh 29.77 in1008.1 mb 0.00 in0.0 mm 0.00 in0.0 mm 0.04 in1.0 mm
06:25 PM 53.2°F11.8°C 44.4°F6.9°C 72% Calm Calm 2.2 mph3.5 kmh 29.77 in1008.1 mb 0.00 in0.0 mm 0.00 in0.0 mm 0.04 in1.0 mm
06:30 PM 53.1°F11.7°C 44.6°F7.0°C 73% 3.1 mph E5.0 kmh E 3.6 mph5.8 kmh 29.77 in1008.1 mb 0.00 in0.0 mm 0.00 in0.0 mm 0.04 in1.0 mm
06:35 PM 53.1°F11.7°C 43.5°F6.4°C 70% 7.6 mph E12.2 kmh E 10.3 mph16.6 kmh 29.77 in1008.1 mb 0.00 in0.0 mm 0.00 in0.0 mm 0.04 in1.0 mm
06:40 PM 52.7°F11.5°C 41.3°F5.2°C 65% 7.4 mph ENE11.9 kmh ENE 10.3 mph16.6 kmh 29.77 in1008.1 mb 0.00 in0.0 mm 0.00 in0.0 mm 0.04 in1.0 mm
06:45 PM 52.3°F11.3°C 40.5°F4.7°C 64% 5.8 mph ENE9.3 kmh ENE 9.8 mph15.8 kmh 29.77 in1008.1 mb 0.00 in0.0 mm 0.00 in0.0 mm 0.04 in1.0 mm
06:50 PM 51.6°F10.9°C 41.4°F5.2°C 68% 6.7 mph E10.8 kmh E 10.3 mph16.6 kmh 29.77 in1008.1 mb 0.00 in0.0 mm 0.00 in0.0 mm 0.04 in1.0 mm
06:55 PM 50.5°F10.3°C 41.8°F5.4°C 72% 6.5 mph E10.5 kmh E 12.3 mph19.8 kmh 29.77 in1008.1 mb 0.00 in0.0 mm 0.00 in0.0 mm 0.04 in1.0 mm
07:00 PM 50.0°F10.0°C 42.4°F5.8°C 75% 6.0 mph E9.7 kmh E 12.3 mph19.8 kmh 29.77 in1008.1 mb 0.00 in0.0 mm 0.00 in0.0 mm 0.04 in1.0 mm
07:05 PM 49.8°F9.9°C 42.2°F5.7°C 75% 2.7 mph ENE4.3 kmh ENE 10.1 mph16.3 kmh 29.77 in1008.1 mb 0.04 in1.0 mm 0.48 in12.2 mm 0.08 in2.0 mm
07:10 PM 49.5°F9.7°C 41.5°F5.3°C 74% 2.5 mph ENE4.0 kmh ENE 9.8 mph15.8 kmh 29.83 in1010.2 mb 0.08 in2.0 mm 0.48 in12.2 mm 0.12 in3.0 mm
07:15 PM 48.7°F9.3°C 41.2°F5.1°C 75% 4.0 mph S6.4 kmh S 5.8 mph9.3 kmh 29.83 in1010.2 mb 0.08 in2.0 mm 0.00 in0.0 mm 0.12 in3.0 mm
07:20 PM 48.4°F9.1°C 41.5°F5.3°C 77% 3.6 mph SSE5.8 kmh SSE 7.4 mph11.9 kmh 29.83 in1010.2 mb 0.12 in3.0 mm 0.48 in12.2 mm 0.16 in4.1 mm
07:25 PM 48.0°F8.9°C 42.8°F6.0°C 82% 6.5 mph SE10.5 kmh SE 8.1 mph13.0 kmh 29.80 in1009.1 mb 0.16 in4.1 mm 0.48 in12.2 mm 0.20 in5.1 mm
07:30 PM 47.7°F8.7°C 42.8°F6.0°C 83% 9.2 mph SE14.8 kmh SE 10.5 mph16.9 kmh 29.80 in1009.1 mb 0.21 in5.3 mm 0.60 in15.2 mm 0.25 in6.4 mm
07:35 PM 47.5°F8.6°C 41.6°F5.3°C 80% 6.3 mph SE10.1 kmh SE 12.3 mph19.8 kmh 29.80 in1009.1 mb 0.21 in5.3 mm 0.00 in0.0 mm 0.25 in6.4 mm
07:40 PM 47.3°F8.5°C 41.8°F5.4°C 81% 1.6 mph SE2.6 kmh SE 12.3 mph19.8 kmh 29.80 in1009.1 mb 0.21 in5.3 mm 0.00 in0.0 mm 0.25 in6.4 mm
07:45 PM 47.3°F8.5°C 41.8°F5.4°C 81% 1.6 mph NNE2.6 kmh NNE 4.0 mph6.4 kmh 29.80 in1009.1 mb 0.21 in5.3 mm 0.00 in0.0 mm 0.25 in6.4 mm
07:50 PM 47.3°F8.5°C 42.1°F5.6°C 82% 1.6 mph N2.6 kmh N 3.6 mph5.8 kmh 29.80 in1009.1 mb 0.21 in5.3 mm 0.00 in0.0 mm 0.25 in6.4 mm
07:55 PM 47.3°F8.5°C 41.8°F5.4°C 81% 2.0 mph SW3.2 kmh SW 2.9 mph4.7 kmh 29.80 in1009.1 mb 0.21 in5.3 mm 0.00 in0.0 mm 0.25 in6.4 mm
08:00 PM 47.1°F8.4°C 42.2°F5.7°C 83% 0.9 mph SSW1.4 kmh SSW 2.9 mph4.7 kmh 29.80 in1009.1 mb 0.21 in5.3 mm 0.00 in0.0 mm 0.25 in6.4 mm
08:05 PM 46.9°F8.3°C 42.0°F5.6°C 83% 1.6 mph S2.6 kmh S 2.7 mph4.3 kmh 29.80 in1009.1 mb 0.17 in4.3 mm 0.00 in0.0 mm 0.25 in6.4 mm
08:10 PM 47.1°F8.4°C 42.2°F5.7°C 83% Calm Calm 2.5 mph4.0 kmh 29.80 in1009.1 mb 0.13 in3.3 mm 0.00 in0.0 mm 0.25 in6.4 mm
08:15 PM 47.1°F8.4°C 42.5°F5.8°C 84% 2.2 mph ENE3.5 kmh ENE 3.4 mph5.5 kmh 29.80 in1009.1 mb 0.17 in4.3 mm 0.48 in12.2 mm 0.29 in7.4 mm
08:20 PM 47.1°F8.4°C 42.5°F5.8°C 84% Calm Calm 3.4 mph5.5 kmh 29.80 in1009.1 mb 0.13 in3.3 mm 0.00 in0.0 mm 0.29 in7.4 mm
08:25 PM 47.1°F8.4°C 43.1°F6.2°C 86% 0.9 mph E1.4 kmh E 3.6 mph5.8 kmh 29.83 in1010.2 mb 0.09 in2.3 mm 0.00 in0.0 mm 0.29 in7.4 mm
08:30 PM 47.1°F8.4°C 43.1°F6.2°C 86% Calm Calm 3.6 mph5.8 kmh 29.83 in1010.2 mb 0.04 in1.0 mm 0.00 in0.0 mm 0.29 in7.4 mm
08:35 PM 47.1°F8.4°C 42.8°F6.0°C 85% Calm Calm 2.5 mph4.0 kmh 29.83 in1010.2 mb 0.04 in1.0 mm 0.00 in0.0 mm 0.29 in7.4 mm
08:40 PM 47.1°F8.4°C 42.8°F6.0°C 85% Calm Calm -- 29.83 in1010.2 mb 0.04 in1.0 mm 0.00 in0.0 mm 0.29 in7.4 mm
08:45 PM 46.9°F8.3°C 42.7°F5.9°C 85% Calm Calm -- 29.83 in1010.2 mb 0.04 in1.0 mm 0.00 in0.0 mm 0.29 in7.4 mm
08:50 PM 46.9°F8.3°C 43.0°F6.1°C 86% 1.3 mph ESE2.1 kmh ESE 1.6 mph2.6 kmh 29.83 in1010.2 mb 0.04 in1.0 mm 0.00 in0.0 mm 0.29 in7.4 mm
08:55 PM 46.8°F8.2°C 42.8°F6.0°C 86% 0.9 mph ESE1.4 kmh ESE 2.0 mph3.2 kmh 29.83 in1010.2 mb 0.04 in1.0 mm 0.00 in0.0 mm 0.29 in7.4 mm
09:00 PM 46.8°F8.2°C 42.8°F6.0°C 86% 1.1 mph E1.8 kmh E 2.2 mph3.5 kmh 29.83 in1010.2 mb 0.04 in1.0 mm 0.00 in0.0 mm 0.29 in7.4 mm
09:05 PM 46.8°F8.2°C 42.8°F6.0°C 86% Calm Calm 2.2 mph3.5 kmh 29.83 in1010.2 mb 0.04 in1.0 mm 0.00 in0.0 mm 0.29 in7.4 mm
09:10 PM 46.6°F8.1°C 42.6°F5.9°C 86% Calm Calm 1.3 mph2.1 kmh 29.83 in1010.2 mb 0.04 in1.0 mm 0.00 in0.0 mm 0.29 in7.4 mm
09:15 PM 46.0°F7.8°C 42.1°F5.6°C 86% Calm Calm -- 29.83 in1010.2 mb 0.00 in0.0 mm 0.00 in0.0 mm 0.29 in7.4 mm
09:20 PM 45.9°F7.7°C 41.9°F5.5°C 86% Calm Calm -- 29.83 in1010.2 mb 0.00 in0.0 mm 0.00 in0.0 mm 0.29 in7.4 mm
09:25 PM 46.0°F7.8°C 42.1°F5.6°C 86% Calm Calm -- 29.86 in1011.2 mb 0.00 in0.0 mm 0.00 in0.0 mm 0.29 in7.4 mm
09:30 PM 46.0°F7.8°C 42.1°F5.6°C 86% Calm Calm -- 29.86 in1011.2 mb 0.00 in0.0 mm 0.00 in0.0 mm 0.29 in7.4 mm